Time;durP1;ratioP1;P1;durP2;ratioP2;P2;SDS_P1;SDS_P2;PMS_P1;PMS_P2;Temp;Humidity;BMP_temperature;BMP_pressure;BME280_temperature;BME280_humidity;BME280_pressure;Samples;Min_cycle;Max_cycle;Signal;HPM_P1;HPM_P2
2023/09/27 00:01:25;;;;;;;9.65;5.35;;;17.70;99.60;;;;;;5087411;28;20048;-79
2023/09/27 00:03:53;;;;;;;10.82;6.10;;;17.70;99.90;;;;;;5082615;28;20063;-79
2023/09/27 00:06:21;;;;;;;10.10;6.25;;;17.70;99.90;;;;;;5080450;28;20072;-79
2023/09/27 00:08:48;;;;;;;9.77;6.75;;;17.60;99.90;;;;;;5086286;28;20059;-79
2023/09/27 00:11:15;;;;;;;10.43;6.18;;;17.60;99.90;;;;;;5088115;28;20048;-79
2023/09/27 00:13:42;;;;;;;16.45;6.75;;;17.60;99.90;;;;;;5087877;28;22539;-79
2023/09/27 00:16:09;;;;;;;13.07;6.43;;;17.60;99.90;;;;;;5060793;28;20058;-79
2023/09/27 00:18:36;;;;;;;10.75;5.60;;;17.60;99.90;;;;;;5075439;28;21136;-79
2023/09/27 00:21:03;;;;;;;10.07;5.70;;;17.60;99.90;;;;;;5086768;28;20151;-80
2023/09/27 00:23:31;;;;;;;11.80;6.68;;;17.60;99.90;;;;;;5081421;28;20101;-79
2023/09/27 00:25:58;;;;;;;12.52;5.68;;;17.50;99.90;;;;;;5070579;28;20319;-79
2023/09/27 00:28:25;;;;;;;10.43;6.25;;;17.50;99.90;;;;;;5086066;28;20048;-79
2023/09/27 00:30:52;;;;;;;10.65;6.50;;;17.50;99.90;;;;;;5081161;28;20052;-79
2023/09/27 00:33:19;;;;;;;13.38;5.40;;;17.50;99.90;;;;;;5085132;28;20049;-79
2023/09/27 00:35:49;;;;;;;9.35;5.88;;;17.50;99.90;;;;;;5087043;28;20052;-79
2023/09/27 00:38:16;;;;;;;12.38;6.28;;;17.50;99.90;;;;;;5085892;28;20116;-79
2023/09/27 00:40:47;;;;;;;9.43;6.28;;;17.40;99.90;;;;;;5098896;28;21135;-79
2023/09/27 00:43:25;;;;;;;12.77;6.40;;;17.40;99.90;;;;;;5082243;28;20056;-79
2023/09/27 00:45:56;;;;;;;12.40;6.32;;;17.30;99.90;;;;;;5064038;28;21105;-79
2023/09/27 00:48:24;;;;;;;11.65;6.10;;;17.30;99.90;;;;;;5073953;28;22509;-80
2023/09/27 00:50:54;;;;;;;18.25;7.72;;;17.30;99.90;;;;;;5070631;28;20049;-79
2023/09/27 00:53:23;;;;;;;11.77;5.63;;;17.30;99.90;;;;;;5070067;28;20056;-79
2023/09/27 00:55:51;;;;;;;9.68;5.95;;;17.20;99.90;;;;;;5064954;28;20063;-80
2023/09/27 00:58:19;;;;;;;13.95;6.47;;;17.20;99.90;;;;;;5075251;28;20052;-79
2023/09/27 01:00:49;;;;;;;13.15;5.95;;;17.20;99.90;;;;;;5063631;28;20064;-79
2023/09/27 01:03:18;;;;;;;11.68;6.32;;;17.20;99.90;;;;;;5074214;28;20078;-79
2023/09/27 01:05:46;;;;;;;9.73;5.72;;;17.20;99.90;;;;;;5068298;28;20047;-79
2023/09/27 01:08:13;;;;;;;8.07;5.20;;;17.20;99.90;;;;;;5070341;28;20395;-79
2023/09/27 01:10:41;;;;;;;19.35;6.72;;;17.20;99.90;;;;;;5086962;28;22637;-79
2023/09/27 01:13:08;;;;;;;8.48;5.40;;;17.20;99.90;;;;;;5086693;28;20139;-79
2023/09/27 01:15:36;;;;;;;11.77;5.53;;;17.20;99.90;;;;;;5073806;28;20044;-79
2023/09/27 01:18:03;;;;;;;12.52;6.60;;;17.20;99.90;;;;;;5074591;28;20040;-79
2023/09/27 01:20:35;;;;;;;10.95;5.50;;;17.10;99.90;;;;;;5074955;28;20738;-80
2023/09/27 01:23:03;;;;;;;10.02;5.75;;;17.00;99.90;;;;;;5066818;28;20048;-79
2023/09/27 01:25:33;;;;;;;10.13;5.70;;;17.10;99.90;;;;;;5079638;28;20055;-79
2023/09/27 01:28:02;;;;;;;10.82;5.97;;;17.10;99.90;;;;;;5069405;28;20238;-80
2023/09/27 01:30:33;;;;;;;11.88;5.28;;;17.20;99.90;;;;;;5079605;28;20040;-79
2023/09/27 01:33:07;;;;;;;11.23;5.50;;;17.20;99.90;;;;;;5070449;28;20047;-80
2023/09/27 01:35:35;;;;;;;12.20;6.32;;;17.10;99.90;;;;;;5079965;28;20063;-79
2023/09/27 01:38:03;;;;;;;14.25;6.10;;;17.10;99.90;;;;;;5085759;28;20049;-79
2023/09/27 01:40:31;;;;;;;11.32;6.18;;;17.00;99.90;;;;;;5080083;28;20052;-79
2023/09/27 01:42:59;;;;;;;13.25;6.13;;;17.00;99.90;;;;;;5089749;28;20067;-78
2023/09/27 01:45:29;;;;;;;11.95;6.13;;;16.90;99.90;;;;;;5070038;28;20036;-80
2023/09/27 01:47:57;;;;;;;11.75;5.82;;;16.90;99.90;;;;;;5085295;28;20048;-80
2023/09/27 01:50:25;;;;;;;9.57;5.63;;;17.00;99.90;;;;;;5084690;28;20049;-80
2023/09/27 01:52:53;;;;;;;8.98;6.10;;;17.00;99.90;;;;;;5067714;28;20143;-80
2023/09/27 01:55:20;;;;;;;11.35;5.78;;;17.00;99.90;;;;;;5079280;28;20040;-80
2023/09/27 01:57:48;;;;;;;13.32;5.90;;;17.00;99.90;;;;;;5066912;28;20041;-80
2023/09/27 02:00:18;;;;;;;11.70;6.20;;;17.00;99.90;;;;;;5072914;28;20056;-79
2023/09/27 02:02:51;;;;;;;13.70;6.78;;;17.00;99.90;;;;;;5068227;28;20052;-79
2023/09/27 02:05:19;;;;;;;13.00;6.90;;;17.00;99.90;;;;;;5084246;28;20063;-79
2023/09/27 02:07:46;;;;;;;11.75;6.28;;;16.90;99.90;;;;;;5069696;28;20052;-80
2023/09/27 02:10:13;;;;;;;13.73;7.28;;;16.90;99.90;;;;;;5083982;28;20048;-79
2023/09/27 02:12:41;;;;;;;20.52;8.43;;;16.90;99.90;;;;;;5074364;28;20059;-80
2023/09/27 02:15:10;;;;;;;17.00;7.60;;;16.80;99.90;;;;;;5060407;28;20155;-79
2023/09/27 02:17:39;;;;;;;13.88;7.93;;;16.80;99.90;;;;;;5069206;28;23502;-79
2023/09/27 02:20:11;;;;;;;15.20;7.15;;;16.90;99.90;;;;;;5066307;28;21321;-80
2023/09/27 02:22:40;;;;;;;15.27;7.45;;;16.90;99.90;;;;;;5061620;28;20167;-80
2023/09/27 02:25:11;;;;;;;13.57;7.63;;;16.90;99.90;;;;;;5088795;28;20055;-80
2023/09/27 02:27:39;;;;;;;15.25;7.03;;;16.80;99.90;;;;;;5076075;28;21424;-80
2023/09/27 02:30:11;;;;;;;17.27;7.60;;;16.80;99.90;;;;;;5069114;28;20140;-79
2023/09/27 02:32:42;;;;;;;12.15;6.30;;;16.80;99.90;;;;;;5062138;28;20053;-79
2023/09/27 02:35:11;;;;;;;12.73;6.43;;;16.80;99.90;;;;;;5070106;28;20076;-80
2023/09/27 02:37:41;;;;;;;9.23;6.25;;;16.80;99.90;;;;;;5086720;28;20171;-80
2023/09/27 02:40:11;;;;;;;14.27;7.28;;;16.70;99.90;;;;;;5085190;28;20075;-80
2023/09/27 02:42:45;;;;;;;12.02;6.32;;;16.80;99.90;;;;;;5075328;28;20052;-80
2023/09/27 02:45:12;;;;;;;14.77;8.23;;;16.80;99.90;;;;;;5053150;28;20054;-80
2023/09/27 02:47:43;;;;;;;11.68;6.35;;;16.80;99.90;;;;;;5084774;28;20044;-80
2023/09/27 02:50:11;;;;;;;18.15;6.47;;;16.80;99.90;;;;;;5061838;28;20048;-80
2023/09/27 02:52:39;;;;;;;14.88;6.13;;;16.70;99.90;;;;;;5085137;28;20718;-79
2023/09/27 02:55:08;;;;;;;15.07;5.90;;;16.70;99.90;;;;;;5075458;28;20056;-79
2023/09/27 02:57:39;;;;;;;10.75;5.95;;;16.60;99.90;;;;;;5069494;28;20075;-80
2023/09/27 03:00:08;;;;;;;12.43;6.50;;;16.60;99.90;;;;;;5069507;28;20060;-80
2023/09/27 03:02:37;;;;;;;8.50;5.68;;;16.60;99.90;;;;;;5061380;28;20503;-80
2023/09/27 03:05:07;;;;;;;12.48;5.82;;;16.60;99.90;;;;;;5069037;28;22400;-80
2023/09/27 03:07:34;;;;;;;11.23;5.70;;;16.60;99.90;;;;;;5065515;28;20056;-80
2023/09/27 03:10:03;;;;;;;12.00;5.80;;;16.50;99.90;;;;;;5072954;28;22436;-80
2023/09/27 03:12:30;;;;;;;10.38;5.82;;;16.50;99.90;;;;;;5057280;28;20887;-80
2023/09/27 03:14:57;;;;;;;18.45;6.95;;;16.50;99.90;;;;;;5073211;28;20037;-80
2023/09/27 03:17:24;;;;;;;12.45;6.55;;;16.40;99.90;;;;;;5087926;28;20074;-79
2023/09/27 03:19:53;;;;;;;14.75;6.82;;;16.40;99.90;;;;;;5073631;28;20051;-79
2023/09/27 03:22:20;;;;;;;15.13;7.72;;;16.40;99.90;;;;;;5063121;28;20147;-79
2023/09/27 03:24:47;;;;;;;11.90;6.38;;;16.40;99.90;;;;;;5078190;28;20059;-79
2023/09/27 03:27:16;;;;;;;13.45;6.93;;;16.40;99.90;;;;;;5072159;28;20056;-79
2023/09/27 03:29:43;;;;;;;10.93;6.28;;;16.30;99.90;;;;;;5085991;28;20060;-79
2023/09/27 03:32:11;;;;;;;13.43;6.93;;;16.30;99.90;;;;;;5069233;28;20773;-79
2023/09/27 03:34:38;;;;;;;13.95;5.97;;;16.30;99.90;;;;;;5084932;28;20872;-80
2023/09/27 03:37:06;;;;;;;11.32;6.95;;;16.30;99.90;;;;;;5061609;28;20052;-80
2023/09/27 03:39:35;;;;;;;11.02;6.20;;;16.30;99.90;;;;;;5083391;28;20529;-79
2023/09/27 03:42:03;;;;;;;10.98;7.20;;;16.20;99.90;;;;;;5077590;28;20048;-80
2023/09/27 03:44:33;;;;;;;13.88;6.45;;;16.30;99.90;;;;;;5070086;28;20049;-79
2023/09/27 03:47:02;;;;;;;12.05;6.70;;;16.30;99.90;;;;;;5066150;28;20079;-80
2023/09/27 03:49:29;;;;;;;11.20;6.32;;;16.30;99.90;;;;;;5067524;28;20064;-80
2023/09/27 03:51:56;;;;;;;9.80;6.32;;;16.20;99.90;;;;;;5088258;28;20044;-80
2023/09/27 03:54:25;;;;;;;14.23;6.78;;;16.20;99.90;;;;;;5068703;28;20040;-80
2023/09/27 03:56:53;;;;;;;12.20;6.75;;;16.20;99.90;;;;;;5070513;28;20036;-80
2023/09/27 03:59:20;;;;;;;14.02;6.28;;;16.20;99.90;;;;;;5084468;28;20044;-80
2023/09/27 04:01:48;;;;;;;14.70;6.93;;;16.10;99.90;;;;;;5083232;28;20117;-80
2023/09/27 04:04:15;;;;;;;12.27;6.72;;;16.10;99.90;;;;;;5060430;28;20048;-80
2023/09/27 04:06:42;;;;;;;13.43;7.50;;;16.00;99.90;;;;;;5053269;28;20143;-79
2023/09/27 04:09:10;;;;;;;15.82;7.88;;;16.10;99.90;;;;;;5071443;28;20080;-79
2023/09/27 04:11:37;;;;;;;13.73;6.35;;;16.00;99.90;;;;;;5060033;28;20048;-79
2023/09/27 04:14:05;;;;;;;10.35;6.38;;;16.00;99.90;;;;;;5069676;28;20123;-80
2023/09/27 04:16:33;;;;;;;15.95;7.28;;;16.10;99.90;;;;;;5072798;28;20056;-79
2023/09/27 04:19:00;;;;;;;12.57;6.55;;;16.00;99.90;;;;;;5072653;28;22358;-79
2023/09/27 04:21:27;;;;;;;16.10;6.47;;;16.00;99.90;;;;;;5076847;28;20137;-79
2023/09/27 04:23:56;;;;;;;13.55;7.13;;;15.90;99.90;;;;;;5073445;28;20498;-79
2023/09/27 04:26:24;;;;;;;14.63;7.40;;;15.90;99.90;;;;;;5072996;28;20052;-79
2023/09/27 04:28:52;;;;;;;16.10;7.43;;;15.90;99.90;;;;;;5070374;28;20059;-79
2023/09/27 04:31:20;;;;;;;14.70;6.93;;;15.90;99.90;;;;;;5073335;28;20051;-79
2023/09/27 04:33:47;;;;;;;11.50;6.65;;;15.80;99.90;;;;;;5056397;28;20048;-79
2023/09/27 04:36:17;;;;;;;13.75;7.18;;;15.90;99.90;;;;;;5070367;28;20044;-79
2023/09/27 04:38:46;;;;;;;10.70;6.57;;;15.90;99.90;;;;;;5081853;28;20039;-79
2023/09/27 04:41:18;;;;;;;14.13;6.03;;;15.90;99.90;;;;;;5094144;28;20051;-79
2023/09/27 04:43:45;;;;;;;15.15;6.70;;;15.90;99.90;;;;;;5077449;28;20037;-79
2023/09/27 04:46:17;;;;;;;15.68;6.35;;;15.80;99.90;;;;;;5073663;28;20059;-79
2023/09/27 04:48:45;;;;;;;11.88;6.18;;;15.90;99.90;;;;;;5080141;28;20040;-79
2023/09/27 04:51:12;;;;;;;17.02;6.95;;;15.80;99.90;;;;;;5072057;28;20040;-79
2023/09/27 04:53:39;;;;;;;16.05;7.20;;;15.80;99.90;;;;;;5072646;28;20044;-79
2023/09/27 04:56:07;;;;;;;13.10;6.82;;;15.70;99.90;;;;;;5090258;28;20051;-79
2023/09/27 04:58:35;;;;;;;14.30;7.00;;;15.80;99.90;;;;;;5083639;28;20040;-79
2023/09/27 05:01:05;;;;;;;12.10;7.07;;;15.80;99.90;;;;;;5078829;28;20055;-79
2023/09/27 05:03:33;;;;;;;16.60;7.35;;;15.80;99.90;;;;;;5082854;28;20084;-79
2023/09/27 05:06:02;;;;;;;11.02;7.72;;;15.80;99.90;;;;;;5089228;28;20048;-79
2023/09/27 05:08:29;;;;;;;11.82;6.97;;;15.80;99.90;;;;;;5068797;28;20048;-83
2023/09/27 05:10:56;;;;;;;11.52;6.72;;;15.80;99.90;;;;;;5078706;28;20043;-83
2023/09/27 05:13:24;;;;;;;14.80;7.05;;;15.90;99.90;;;;;;5063193;28;20049;-83
2023/09/27 05:15:52;;;;;;;13.68;7.30;;;15.90;99.90;;;;;;5050641;28;20495;-83
2023/09/27 05:18:22;;;;;;;18.65;8.05;;;15.80;99.90;;;;;;5066648;28;20148;-83
2023/09/27 05:20:50;;;;;;;13.50;7.55;;;15.90;99.90;;;;;;5087412;28;20040;-83
2023/09/27 05:23:17;;;;;;;14.35;7.45;;;15.90;99.90;;;;;;5067400;28;20101;-83
2023/09/27 05:25:44;;;;;;;13.95;7.22;;;15.90;99.90;;;;;;5079390;28;22716;-83
2023/09/27 05:28:11;;;;;;;11.50;6.55;;;16.00;99.90;;;;;;5062272;28;20132;-83
2023/09/27 05:30:39;;;;;;;13.73;7.78;;;16.00;99.90;;;;;;5071599;28;20049;-83
2023/09/27 05:33:06;;;;;;;13.13;7.63;;;16.00;99.90;;;;;;5072048;28;20044;-83
2023/09/27 05:35:33;;;;;;;12.70;8.05;;;16.10;99.90;;;;;;5068078;28;20049;-83
2023/09/27 05:38:03;;;;;;;16.98;7.57;;;16.10;99.90;;;;;;5060945;28;20894;-83
2023/09/27 05:40:31;;;;;;;16.25;7.57;;;16.10;99.90;;;;;;5069674;28;20112;-83
2023/09/27 05:42:58;;;;;;;14.02;7.60;;;16.20;99.90;;;;;;5077931;28;20049;-84
2023/09/27 05:45:28;;;;;;;14.13;7.85;;;16.20;99.90;;;;;;5069296;28;20056;-82
2023/09/27 05:47:55;;;;;;;16.40;8.38;;;16.30;99.90;;;;;;5057076;28;20252;-83
2023/09/27 05:50:23;;;;;;;11.90;7.20;;;16.30;99.90;;;;;;5080592;28;20033;-83
2023/09/27 05:52:50;;;;;;;18.75;8.32;;;16.40;99.90;;;;;;5070821;28;20040;-81
2023/09/27 05:55:17;;;;;;;14.25;7.78;;;16.40;99.90;;;;;;5056904;28;22063;-83
2023/09/27 05:57:44;;;;;;;18.08;8.40;;;16.30;99.90;;;;;;5073090;28;20418;-83
2023/09/27 06:00:23;;;;;;;17.35;7.80;;;16.40;99.90;;;;;;5087042;28;21219;-82
2023/09/27 06:02:50;;;;;;;19.08;8.68;;;16.50;99.90;;;;;;5064055;28;20040;-83
2023/09/27 06:05:18;;;;;;;12.85;7.85;;;16.60;99.90;;;;;;5077769;28;20059;-82
2023/09/27 06:07:46;;;;;;;15.13;8.00;;;16.70;99.90;;;;;;5086505;28;20040;-83
2023/09/27 06:10:13;;;;;;;13.70;7.38;;;16.80;99.90;;;;;;5070183;28;20052;-83
2023/09/27 06:12:40;;;;;;;16.10;7.65;;;16.90;99.90;;;;;;5065408;28;20048;-83
2023/09/27 06:15:09;;;;;;;13.88;8.13;;;17.00;99.90;;;;;;5058261;28;20135;-83
2023/09/27 06:17:36;;;;;;;12.52;7.60;;;17.00;99.90;;;;;;5073782;28;20151;-83
2023/09/27 06:20:08;;;;;;;15.23;7.25;;;17.10;99.90;;;;;;5067918;28;20055;-83
2023/09/27 06:22:36;;;;;;;13.10;7.18;;;17.20;99.90;;;;;;5085910;28;20051;-81
2023/09/27 06:25:06;;;;;;;12.20;7.07;;;17.30;99.90;;;;;;5074621;28;20048;-82
2023/09/27 06:27:34;;;;;;;14.50;6.78;;;17.30;99.90;;;;;;5069049;28;20044;-82
2023/09/27 06:30:03;;;;;;;14.05;6.70;;;17.40;99.90;;;;;;5070083;28;20411;-82
2023/09/27 06:32:30;;;;;;;12.18;6.30;;;17.50;99.90;;;;;;5069883;28;20053;-82
2023/09/27 06:34:58;;;;;;;13.57;6.63;;;17.60;99.90;;;;;;5076845;28;20053;-82
2023/09/27 06:37:25;;;;;;;15.90;6.05;;;17.70;99.90;;;;;;5078924;28;20139;-84
2023/09/27 06:39:52;;;;;;;15.65;6.38;;;17.80;99.90;;;;;;5072986;28;20052;-82
2023/09/27 06:42:19;;;;;;;12.18;5.80;;;17.80;99.90;;;;;;5075921;28;20098;-82
2023/09/27 06:44:47;;;;;;;14.38;6.57;;;18.00;99.90;;;;;;5078390;28;20056;-82
2023/09/27 06:47:14;;;;;;;11.88;5.47;;;18.00;99.90;;;;;;5070787;28;21096;-82
2023/09/27 06:49:41;;;;;;;10.98;6.38;;;18.10;99.90;;;;;;5072695;28;20052;-83
2023/09/27 06:52:08;;;;;;;9.25;5.28;;;18.20;99.90;;;;;;5074695;28;20047;-82
2023/09/27 06:54:35;;;;;;;12.02;7.18;;;18.30;99.90;;;;;;5073068;28;20125;-82
2023/09/27 06:57:03;;;;;;;8.70;5.15;;;18.40;99.90;;;;;;5064100;28;20056;-79
2023/09/27 06:59:31;;;;;;;10.98;6.28;;;18.50;99.90;;;;;;5069857;28;20109;-82
2023/09/27 07:01:59;;;;;;;8.40;6.03;;;18.60;99.90;;;;;;5073563;28;20837;-81
2023/09/27 07:04:27;;;;;;;13.02;6.85;;;18.70;99.90;;;;;;5082376;28;20059;-82
2023/09/27 07:06:54;;;;;;;8.90;5.30;;;18.70;99.90;;;;;;5071283;28;22592;-84
2023/09/27 07:09:22;;;;;;;8.82;5.40;;;18.90;99.90;;;;;;5082011;28;20086;-81
2023/09/27 07:11:49;;;;;;;9.00;4.78;;;18.90;99.90;;;;;;5080744;28;20567;-84
2023/09/27 07:14:19;;;;;;;9.18;5.03;;;19.00;99.90;;;;;;5076569;28;20059;-81
2023/09/27 07:16:46;;;;;;;7.82;5.28;;;19.10;99.90;;;;;;5076002;28;20071;-81
2023/09/27 07:19:31;;;;;;;10.02;5.05;;;19.20;99.90;;;;;;5071796;28;20094;-83
2023/09/27 07:22:01;;;;;;;9.43;5.15;;;19.30;99.90;;;;;;5074392;28;20049;-81
2023/09/27 07:24:30;;;;;;;8.15;5.40;;;19.40;99.90;;;;;;5086469;28;20059;-81
2023/09/27 07:26:57;;;;;;;8.68;5.03;;;19.50;99.70;;;;;;5066935;28;20050;-82
2023/09/27 07:29:24;;;;;;;11.77;5.22;;;19.60;99.10;;;;;;5074724;28;20051;-81
2023/09/27 07:31:51;;;;;;;9.85;5.03;;;19.60;98.70;;;;;;5079612;28;20040;-81
2023/09/27 07:34:20;;;;;;;9.20;4.70;;;19.70;97.90;;;;;;5084733;28;22514;-82
2023/09/27 07:36:47;;;;;;;10.18;5.15;;;19.80;97.70;;;;;;5070001;28;20048;-81
2023/09/27 07:39:15;;;;;;;9.65;4.57;;;19.90;97.60;;;;;;5082052;28;20105;-80
2023/09/27 07:41:42;;;;;;;10.85;4.78;;;20.00;97.40;;;;;;5072013;28;20059;-82
2023/09/27 07:44:10;;;;;;;7.93;4.80;;;20.00;96.70;;;;;;5078140;28;20505;-81
2023/09/27 07:46:38;;;;;;;9.45;4.85;;;20.10;97.20;;;;;;5073543;28;20094;-82
2023/09/27 07:49:05;;;;;;;11.00;4.88;;;20.20;96.50;;;;;;5076352;28;20518;-80
2023/09/27 07:51:32;;;;;;;8.77;4.88;;;20.30;96.30;;;;;;5074904;28;20101;-82
2023/09/27 07:53:59;;;;;;;11.27;5.10;;;20.40;95.70;;;;;;5068170;28;20044;-82
2023/09/27 07:56:27;;;;;;;9.43;5.32;;;20.30;95.40;;;;;;5075079;28;21009;-82
2023/09/27 07:58:54;;;;;;;11.98;4.80;;;20.40;95.40;;;;;;5069971;28;20055;-81
2023/09/27 08:01:23;;;;;;;7.28;4.32;;;20.50;95.50;;;;;;5076995;28;20040;-82
2023/09/27 08:03:52;;;;;;;11.48;5.20;;;20.60;95.70;;;;;;5068196;28;20048;-84
2023/09/27 08:06:20;;;;;;;8.45;4.57;;;20.60;94.70;;;;;;5076135;28;20086;-82
2023/09/27 08:08:48;;;;;;;8.70;4.15;;;20.70;94.60;;;;;;5098289;27;20047;-82
2023/09/27 08:11:15;;;;;;;7.22;4.28;;;20.80;95.00;;;;;;5090744;28;22338;-80
2023/09/27 08:13:43;;;;;;;9.38;4.55;;;20.90;94.80;;;;;;5065273;28;20063;-82
2023/09/27 08:16:10;;;;;;;7.90;4.55;;;20.90;94.10;;;;;;5087259;28;20052;-81
2023/09/27 08:18:38;;;;;;;8.30;5.47;;;21.00;94.10;;;;;;5080989;28;20093;-81
2023/09/27 08:21:05;;;;;;;6.28;4.47;;;21.10;94.40;;;;;;5077465;28;20054;-82
2023/09/27 08:23:32;;;;;;;6.97;4.72;;;21.10;93.20;;;;;;5064943;28;20058;-82
2023/09/27 08:26:00;;;;;;;9.15;4.60;;;21.20;93.50;;;;;;5066483;28;20127;-82
2023/09/27 08:28:31;;;;;;;7.78;4.60;;;21.20;93.50;;;;;;5089946;28;20039;-82
2023/09/27 08:30:59;;;;;;;9.87;4.83;;;21.30;93.30;;;;;;5096915;28;20106;-82
2023/09/27 08:33:27;;;;;;;9.35;4.65;;;21.40;93.70;;;;;;5088969;28;20052;-81
2023/09/27 08:35:55;;;;;;;8.10;4.80;;;21.50;93.60;;;;;;5074376;28;20067;-82
2023/09/27 08:38:26;;;;;;;8.90;4.57;;;21.60;93.00;;;;;;5065211;28;20511;-79
2023/09/27 08:40:54;;;;;;;9.77;4.55;;;21.70;93.40;;;;;;5071734;28;20056;-81
2023/09/27 08:43:22;;;;;;;9.20;4.00;;;21.70;92.90;;;;;;5072251;28;20107;-80
2023/09/27 08:45:51;;;;;;;9.30;4.30;;;21.70;92.60;;;;;;5088710;28;20059;-81
2023/09/27 08:48:22;;;;;;;10.30;4.22;;;21.80;92.80;;;;;;5058879;28;20044;-81
2023/09/27 08:50:50;;;;;;;12.40;5.50;;;21.80;92.30;;;;;;5073933;28;20147;-81
2023/09/27 08:53:18;;;;;;;7.45;4.28;;;21.90;92.20;;;;;;5081966;28;20044;-79
2023/09/27 08:55:50;;;;;;;8.73;4.72;;;22.10;92.20;;;;;;5071072;28;20048;-80
2023/09/27 08:58:24;;;;;;;9.80;4.60;;;22.10;92.00;;;;;;5065400;28;20131;-81
2023/09/27 09:00:52;;;;;;;10.02;4.90;;;22.10;91.40;;;;;;5062305;28;20060;-81
2023/09/27 09:03:20;;;;;;;9.05;4.55;;;22.20;91.80;;;;;;5080909;28;22382;-82
2023/09/27 09:05:48;;;;;;;6.03;3.92;;;22.30;91.10;;;;;;5055756;28;20134;-81
2023/09/27 09:08:16;;;;;;;5.68;3.55;;;22.30;90.80;;;;;;5081154;28;22515;-81
2023/09/27 09:10:59;;;;;;;6.97;3.75;;;22.30;90.70;;;;;;5071543;28;20117;-81
2023/09/27 09:13:26;;;;;;;11.27;3.97;;;22.40;89.50;;;;;;5085344;28;20106;-81
2023/09/27 09:15:57;;;;;;;7.82;4.05;;;22.30;86.40;;;;;;5064707;28;20066;-80
2023/09/27 09:18:31;;;;;;;7.25;4.22;;;22.50;87.80;;;;;;5069378;28;20407;-81
2023/09/27 09:21:08;;;;;;;8.73;4.05;;;22.50;87.10;;;;;;5071352;28;20068;-80
2023/09/27 09:23:37;;;;;;;18.83;4.82;;;22.50;86.40;;;;;;5071630;28;20044;-81
2023/09/27 09:26:07;;;;;;;8.77;3.60;;;22.60;85.80;;;;;;5076166;28;20071;-81
2023/09/27 09:28:50;;;;;;;7.32;3.72;;;22.70;84.80;;;;;;5069497;28;20075;-81
2023/09/27 09:31:22;;;;;;;8.20;3.83;;;22.80;85.70;;;;;;5092514;28;20048;-81
2023/09/27 09:34:03;;;;;;;8.20;3.92;;;22.90;84.70;;;;;;5061436;28;20057;-81
2023/09/27 09:36:31;;;;;;;10.15;3.38;;;23.00;84.90;;;;;;5024032;28;20323;-81
2023/09/27 09:39:13;;;;;;;9.00;3.60;;;23.00;84.90;;;;;;5043859;28;20167;-80
2023/09/27 09:41:59;;;;;;;9.40;4.47;;;23.10;84.20;;;;;;5026850;28;20050;-80
2023/09/27 09:44:26;;;;;;;6.05;3.40;;;23.00;82.10;;;;;;5006826;28;20054;-79
2023/09/27 09:46:53;;;;;;;7.45;4.03;;;23.00;82.70;;;;;;4989605;28;20052;-80
2023/09/27 09:49:21;;;;;;;6.28;3.30;;;23.00;82.60;;;;;;4990341;28;20037;-80
2023/09/27 09:51:53;;;;;;;5.85;3.60;;;23.10;81.60;;;;;;4993196;28;20100;-80
2023/09/27 09:54:26;;;;;;;;;;;23.10;82.00;;;;;;4992207;28;20057;-80
2023/09/27 09:56:57;;;;;;;8.18;3.58;;;23.10;82.40;;;;;;5010468;28;19952;-79
2023/09/27 09:59:53;;;;;;;8.23;4.35;;;23.20;83.80;;;;;;5023333;28;20084;-82
2023/09/27 10:02:26;;;;;;;7.60;4.15;;;23.20;84.40;;;;;;5028694;28;20072;-80
2023/09/27 10:04:57;;;;;;;7.72;3.92;;;23.20;83.80;;;;;;5015661;28;20053;-82
2023/09/27 10:07:25;;;;;;;9.18;4.07;;;23.20;83.50;;;;;;5007284;28;20045;-81
2023/09/27 10:09:53;;;;;;;12.13;4.90;;;23.30;83.20;;;;;;5005800;28;20061;-79
2023/09/27 10:12:24;;;;;;;12.63;4.30;;;23.30;82.80;;;;;;5032178;28;20040;-81
2023/09/27 10:14:52;;;;;;;9.20;4.07;;;23.30;82.80;;;;;;5076274;28;22645;-79
2023/09/27 10:17:21;;;;;;;10.10;3.95;;;23.30;83.30;;;;;;5065108;28;20048;-80
2023/09/27 10:20:09;;;;;;;8.35;3.85;;;23.30;81.90;;;;;;5070848;28;20047;-81
2023/09/27 10:22:36;;;;;;;5.78;3.58;;;23.40;82.00;;;;;;5067171;28;20134;-81
2023/09/27 10:25:04;;;;;;;6.72;3.45;;;23.40;81.00;;;;;;5064413;28;20090;-81
2023/09/27 10:27:59;;;;;;;5.90;3.55;;;23.40;80.70;;;;;;5088071;28;20057;-79
2023/09/27 10:30:27;;;;;;;8.65;4.05;;;23.50;80.30;;;;;;5072688;28;20052;-78
2023/09/27 10:33:22;;;;;;;7.68;4.10;;;23.50;80.50;;;;;;5074806;28;20136;-80
2023/09/27 10:36:01;;;;;;;6.97;3.33;;;23.70;81.00;;;;;;5071454;28;20121;-80
2023/09/27 10:38:47;;;;;;;9.38;3.40;;;23.70;78.20;;;;;;5067188;28;20915;-79
2023/09/27 10:41:32;;;;;;;8.02;3.88;;;23.70;78.60;;;;;;5075286;28;20052;-79
2023/09/27 10:44:03;;;;;;;5.72;3.25;;;23.70;78.00;;;;;;5064921;28;20094;-81
2023/09/27 10:46:45;;;;;;;8.02;3.42;;;23.70;76.20;;;;;;5071120;28;20060;-81
2023/09/27 10:49:26;;;;;;;6.22;3.30;;;23.80;77.90;;;;;;5068786;28;20189;-80
2023/09/27 10:51:54;;;;;;;6.63;3.33;;;23.80;76.10;;;;;;5068148;28;20056;-80
2023/09/27 10:54:34;;;;;;;8.10;3.15;;;23.90;74.60;;;;;;5070444;28;20033;-80
2023/09/27 10:57:02;;;;;;;5.78;3.58;;;23.80;74.30;;;;;;5086150;28;20063;-80
2023/09/27 10:59:30;;;;;;;5.18;3.05;;;23.90;74.10;;;;;;5083643;28;20135;-81
2023/09/27 11:02:03;;;;;;;6.85;2.80;;;23.90;73.60;;;;;;5060834;28;20056;-80
2023/09/27 11:04:32;;;;;;;5.72;2.83;;;23.90;72.10;;;;;;5075407;28;22166;-80
2023/09/27 11:07:00;;;;;;;7.13;3.08;;;23.90;72.90;;;;;;5090534;28;20062;-78
2023/09/27 11:09:27;;;;;;;5.70;3.22;;;24.10;73.60;;;;;;5090719;27;20067;-80
2023/09/27 11:11:55;;;;;;;8.52;3.50;;;24.10;74.10;;;;;;5078104;28;20384;-81
2023/09/27 11:14:31;;;;;;;6.25;2.97;;;24.10;73.10;;;;;;5066834;28;20040;-80
2023/09/27 11:17:22;;;;;;;7.70;3.40;;;24.20;73.30;;;;;;5074291;28;22414;-80
2023/09/27 11:19:50;;;;;;;7.07;3.42;;;24.30;73.90;;;;;;5085387;28;20888;-81
2023/09/27 11:22:27;;;;;;;6.35;3.00;;;24.40;73.20;;;;;;5077544;28;20055;-81
2023/09/27 11:24:55;;;;;;;5.22;3.00;;;24.40;74.20;;;;;;5090989;28;20039;-80
2023/09/27 11:27:23;;;;;;;5.53;3.38;;;24.40;72.40;;;;;;5078102;28;20056;-81
2023/09/27 11:29:53;;;;;;;6.68;3.58;;;24.40;71.90;;;;;;5074076;28;20127;-80
2023/09/27 11:32:21;;;;;;;4.95;3.08;;;24.40;72.90;;;;;;5076874;28;20105;-80
2023/09/27 11:34:59;;;;;;;6.80;3.08;;;24.50;70.90;;;;;;5079485;28;20044;-80
2023/09/27 11:37:28;;;;;;;8.32;3.42;;;24.50;70.60;;;;;;5058313;28;20081;-81
2023/09/27 11:39:57;;;;;;;5.15;2.70;;;24.50;71.00;;;;;;5090746;28;20044;-81
2023/09/27 11:42:25;;;;;;;6.13;3.25;;;24.50;72.70;;;;;;5078330;28;20514;-79
2023/09/27 11:45:08;;;;;;;3.92;2.70;;;24.70;71.70;;;;;;5083605;28;20055;-82
2023/09/27 11:47:49;;;;;;;7.28;2.90;;;24.70;70.50;;;;;;5066367;28;20052;-82
2023/09/27 11:50:19;;;;;;;6.22;2.90;;;24.70;71.40;;;;;;5079044;28;20048;-80
2023/09/27 11:52:47;;;;;;;5.97;3.25;;;24.60;69.90;;;;;;5064282;28;20128;-79
2023/09/27 11:55:16;;;;;;;6.75;3.20;;;24.70;70.00;;;;;;5078472;28;22563;-81
2023/09/27 11:57:43;;;;;;;8.20;3.58;;;24.70;69.30;;;;;;5074197;28;20048;-82
2023/09/27 12:00:17;;;;;;;5.80;2.40;;;24.70;68.90;;;;;;5070408;28;20148;-80
2023/09/27 12:02:45;;;;;;;7.63;3.30;;;24.70;68.20;;;;;;5075104;28;20047;-81
2023/09/27 12:05:24;;;;;;;6.47;3.15;;;24.80;69.90;;;;;;5078636;28;22518;-81
2023/09/27 12:07:52;;;;;;;5.75;3.20;;;24.80;68.00;;;;;;5067305;28;20106;-82
2023/09/27 12:10:19;;;;;;;6.80;3.28;;;24.70;68.20;;;;;;5066811;28;20055;-77
2023/09/27 12:12:48;;;;;;;4.40;2.67;;;24.70;69.30;;;;;;5060444;28;20052;-80
2023/09/27 12:15:15;;;;;;;5.97;2.95;;;24.80;68.20;;;;;;5077463;28;20128;-79
2023/09/27 12:17:42;;;;;;;7.55;2.05;;;24.90;68.80;;;;;;5063049;28;20053;-79
2023/09/27 12:20:10;;;;;;;7.30;3.20;;;24.90;68.40;;;;;;5072411;28;20036;-77
2023/09/27 12:22:57;;;;;;;5.53;2.45;;;24.90;66.60;;;;;;5074227;28;20046;-79
2023/09/27 12:25:26;;;;;;;5.22;2.42;;;25.00;66.10;;;;;;5076711;28;20060;-80
2023/09/27 12:27:54;;;;;;;6.70;3.10;;;25.00;66.60;;;;;;5064503;28;20874;-80
2023/09/27 12:30:21;;;;;;;4.10;2.60;;;24.90;67.50;;;;;;5081161;28;20086;-80
2023/09/27 12:32:49;;;;;;;6.63;3.13;;;24.90;67.30;;;;;;5072946;28;20052;-81
2023/09/27 12:35:17;;;;;;;8.00;3.00;;;24.90;66.60;;;;;;5089151;28;20072;-81
2023/09/27 12:37:44;;;;;;;6.28;2.75;;;24.90;66.70;;;;;;5078110;28;20130;-81
2023/09/27 12:40:12;;;;;;;5.90;3.25;;;24.80;66.80;;;;;;5067387;28;20047;-81
2023/09/27 12:42:39;;;;;;;4.93;2.33;;;24.90;66.90;;;;;;5072289;28;20076;-81
2023/09/27 12:45:08;;;;;;;7.50;3.40;;;24.80;67.00;;;;;;5063619;28;20048;-79
2023/09/27 12:47:36;;;;;;;5.82;2.97;;;24.90;66.50;;;;;;5074420;28;20411;-80
2023/09/27 12:50:06;;;;;;;5.55;2.90;;;24.90;65.90;;;;;;5075493;28;20414;-80
2023/09/27 12:52:35;;;;;;;5.65;2.90;;;25.00;68.10;;;;;;5067209;28;20045;-78